sensor_id;sensor_type;location;lat;lon;timestamp;pressure;altitude;pressure_sealevel;temperature;humidity
45872;BME280;32333;55.844;-3.210;2023-11-19T00:02:01;97403.56;;;7.79;100.00
45872;BME280;32333;55.844;-3.210;2023-11-19T00:04:28;97406.12;;;8.23;100.00
45872;BME280;32333;55.844;-3.210;2023-11-19T00:06:57;97400.57;;;7.92;100.00
45872;BME280;32333;55.844;-3.210;2023-11-19T00:09:24;97408.98;;;8.01;100.00
45872;BME280;32333;55.844;-3.210;2023-11-19T00:11:53;97400.20;;;7.52;100.00
45872;BME280;32333;55.844;-3.210;2023-11-19T00:14:36;97403.20;;;7.94;100.00
45872;BME280;32333;55.844;-3.210;2023-11-19T00:17:05;97399.24;;;7.47;100.00
45872;BME280;32333;55.844;-3.210;2023-11-19T00:19:33;97398.78;;;8.36;100.00
45872;BME280;32333;55.844;-3.210;2023-11-19T00:22:07;97389.37;;;7.42;100.00
45872;BME280;32333;55.844;-3.210;2023-11-19T00:24:35;97390.82;;;7.99;100.00
45872;BME280;32333;55.844;-3.210;2023-11-19T00:27:03;97395.41;;;8.36;100.00
45872;BME280;32333;55.844;-3.210;2023-11-19T00:29:47;97386.69;;;7.54;100.00
45872;BME280;32333;55.844;-3.210;2023-11-19T00:32:17;97391.87;;;7.42;100.00
45872;BME280;32333;55.844;-3.210;2023-11-19T00:34:45;97390.88;;;7.63;100.00
45872;BME280;32333;55.844;-3.210;2023-11-19T00:37:13;97395.01;;;7.64;100.00
45872;BME280;32333;55.844;-3.210;2023-11-19T00:39:41;97387.69;;;7.59;100.00
45872;BME280;32333;55.844;-3.210;2023-11-19T00:44:36;97392.54;;;7.64;100.00
45872;BME280;32333;55.844;-3.210;2023-11-19T00:47:08;97390.51;;;7.83;100.00
45872;BME280;32333;55.844;-3.210;2023-11-19T00:49:38;97391.74;;;7.97;100.00
45872;BME280;32333;55.844;-3.210;2023-11-19T00:52:56;97387.22;;;7.95;100.00
45872;BME280;32333;55.844;-3.210;2023-11-19T00:57:25;97382.07;;;7.87;100.00
45872;BME280;32333;55.844;-3.210;2023-11-19T00:59:54;97386.84;;;7.80;100.00
45872;BME280;32333;55.844;-3.210;2023-11-19T01:02:21;97387.67;;;7.58;100.00
45872;BME280;32333;55.844;-3.210;2023-11-19T01:04:50;97385.64;;;7.78;100.00
45872;BME280;32333;55.844;-3.210;2023-11-19T01:08:00;97371.70;;;7.39;100.00
45872;BME280;32333;55.844;-3.210;2023-11-19T01:10:29;97371.92;;;7.68;100.00
45872;BME280;32333;55.844;-3.210;2023-11-19T01:14:42;97373.03;;;7.81;100.00
45872;BME280;32333;55.844;-3.210;2023-11-19T01:17:11;97366.90;;;7.39;100.00
45872;BME280;32333;55.844;-3.210;2023-11-19T01:19:43;97370.86;;;7.36;100.00
45872;BME280;32333;55.844;-3.210;2023-11-19T01:22:12;97366.93;;;8.05;100.00
45872;BME280;32333;55.844;-3.210;2023-11-19T01:24:40;97370.81;;;7.43;100.00
45872;BME280;32333;55.844;-3.210;2023-11-19T01:27:09;97365.19;;;7.74;100.00
45872;BME280;32333;55.844;-3.210;2023-11-19T01:29:36;97371.11;;;7.58;100.00
45872;BME280;32333;55.844;-3.210;2023-11-19T01:32:04;97369.11;;;7.09;100.00
45872;BME280;32333;55.844;-3.210;2023-11-19T01:34:32;97374.65;;;7.82;100.00
45872;BME280;32333;55.844;-3.210;2023-11-19T01:37:01;97369.71;;;7.73;100.00
45872;BME280;32333;55.844;-3.210;2023-11-19T01:39:33;97366.67;;;7.35;100.00
45872;BME280;32333;55.844;-3.210;2023-11-19T01:42:00;97367.69;;;7.43;100.00
45872;BME280;32333;55.844;-3.210;2023-11-19T01:44:36;97372.23;;;7.34;100.00
45872;BME280;32333;55.844;-3.210;2023-11-19T01:47:03;97372.84;;;7.40;100.00
45872;BME280;32333;55.844;-3.210;2023-11-19T01:49:32;97372.45;;;7.70;100.00
45872;BME280;32333;55.844;-3.210;2023-11-19T01:51:59;97375.49;;;8.02;100.00
45872;BME280;32333;55.844;-3.210;2023-11-19T01:54:28;97372.86;;;7.68;100.00
45872;BME280;32333;55.844;-3.210;2023-11-19T01:56:56;97374.82;;;7.44;100.00
45872;BME280;32333;55.844;-3.210;2023-11-19T01:59:24;97374.24;;;7.19;100.00
45872;BME280;32333;55.844;-3.210;2023-11-19T02:01:52;97373.50;;;7.13;100.00
45872;BME280;32333;55.844;-3.210;2023-11-19T02:04:21;97374.56;;;7.25;100.00
45872;BME280;32333;55.844;-3.210;2023-11-19T02:06:51;97374.97;;;7.73;100.00
45872;BME280;32333;55.844;-3.210;2023-11-19T02:09:22;97365.03;;;7.50;100.00
45872;BME280;32333;55.844;-3.210;2023-11-19T02:11:49;97369.72;;;7.68;100.00
45872;BME280;32333;55.844;-3.210;2023-11-19T02:14:36;97373.94;;;7.78;100.00
45872;BME280;32333;55.844;-3.210;2023-11-19T02:17:04;97371.36;;;7.50;100.00
45872;BME280;32333;55.844;-3.210;2023-11-19T02:19:31;97373.70;;;7.81;100.00
45872;BME280;32333;55.844;-3.210;2023-11-19T02:21:59;97373.08;;;7.74;100.00
45872;BME280;32333;55.844;-3.210;2023-11-19T02:24:29;97371.95;;;7.74;100.00
45872;BME280;32333;55.844;-3.210;2023-11-19T02:27:02;97365.46;;;8.01;100.00
45872;BME280;32333;55.844;-3.210;2023-11-19T02:29:29;97367.21;;;7.92;100.00
45872;BME280;32333;55.844;-3.210;2023-11-19T02:31:57;97367.30;;;8.15;100.00
45872;BME280;32333;55.844;-3.210;2023-11-19T02:34:25;97366.91;;;7.40;100.00
45872;BME280;32333;55.844;-3.210;2023-11-19T02:36:52;97364.64;;;7.91;100.00
45872;BME280;32333;55.844;-3.210;2023-11-19T02:39:20;97363.79;;;8.52;100.00
45872;BME280;32333;55.844;-3.210;2023-11-19T02:41:48;97366.09;;;7.92;100.00
45872;BME280;32333;55.844;-3.210;2023-11-19T02:44:36;97365.31;;;7.93;100.00
45872;BME280;32333;55.844;-3.210;2023-11-19T02:47:05;97364.90;;;7.47;100.00
45872;BME280;32333;55.844;-3.210;2023-11-19T02:49:34;97362.88;;;8.01;100.00
45872;BME280;32333;55.844;-3.210;2023-11-19T02:52:01;97359.15;;;7.42;100.00
45872;BME280;32333;55.844;-3.210;2023-11-19T02:54:29;97357.80;;;8.30;100.00
45872;BME280;32333;55.844;-3.210;2023-11-19T02:56:56;97359.13;;;7.80;100.00
45872;BME280;32333;55.844;-3.210;2023-11-19T02:59:24;97358.15;;;8.06;100.00
45872;BME280;32333;55.844;-3.210;2023-11-19T03:01:51;97357.56;;;7.92;100.00
45872;BME280;32333;55.844;-3.210;2023-11-19T03:04:18;97351.42;;;7.91;100.00
45872;BME280;32333;55.844;-3.210;2023-11-19T03:06:47;97346.41;;;7.97;100.00
45872;BME280;32333;55.844;-3.210;2023-11-19T03:09:14;97350.91;;;7.27;100.00
45872;BME280;32333;55.844;-3.210;2023-11-19T03:11:41;97353.52;;;7.21;100.00
45872;BME280;32333;55.844;-3.210;2023-11-19T03:14:35;97348.08;;;7.04;100.00
45872;BME280;32333;55.844;-3.210;2023-11-19T03:17:03;97344.69;;;7.00;100.00
45872;BME280;32333;55.844;-3.210;2023-11-19T03:19:30;97347.56;;;6.87;100.00
45872;BME280;32333;55.844;-3.210;2023-11-19T03:21:57;97346.68;;;7.24;100.00
45872;BME280;32333;55.844;-3.210;2023-11-19T03:24:25;97348.10;;;6.95;100.00
45872;BME280;32333;55.844;-3.210;2023-11-19T03:26:52;97341.57;;;6.65;100.00
45872;BME280;32333;55.844;-3.210;2023-11-19T03:29:20;97347.60;;;7.16;100.00
45872;BME280;32333;55.844;-3.210;2023-11-19T03:31:47;97345.21;;;6.72;100.00
45872;BME280;32333;55.844;-3.210;2023-11-19T03:34:14;97346.33;;;7.37;100.00
45872;BME280;32333;55.844;-3.210;2023-11-19T03:36:42;97354.12;;;7.18;100.00
45872;BME280;32333;55.844;-3.210;2023-11-19T03:39:09;97351.16;;;6.99;100.00
45872;BME280;32333;55.844;-3.210;2023-11-19T03:41:37;97356.81;;;7.37;100.00
45872;BME280;32333;55.844;-3.210;2023-11-19T03:44:35;97353.12;;;7.15;100.00
45872;BME280;32333;55.844;-3.210;2023-11-19T03:47:04;97365.15;;;7.70;100.00
45872;BME280;32333;55.844;-3.210;2023-11-19T03:49:31;97358.52;;;7.47;100.00
45872;BME280;32333;55.844;-3.210;2023-11-19T03:51:59;97356.66;;;7.41;100.00
45872;BME280;32333;55.844;-3.210;2023-11-19T03:54:27;97355.67;;;6.86;100.00
45872;BME280;32333;55.844;-3.210;2023-11-19T03:56:54;97355.00;;;7.23;100.00
45872;BME280;32333;55.844;-3.210;2023-11-19T03:59:22;97360.85;;;7.31;100.00
45872;BME280;32333;55.844;-3.210;2023-11-19T04:01:50;97361.30;;;7.15;100.00
45872;BME280;32333;55.844;-3.210;2023-11-19T04:04:17;97360.01;;;7.16;100.00
45872;BME280;32333;55.844;-3.210;2023-11-19T04:06:44;97356.69;;;7.30;100.00
45872;BME280;32333;55.844;-3.210;2023-11-19T04:09:13;97362.09;;;7.48;100.00
45872;BME280;32333;55.844;-3.210;2023-11-19T04:11:40;97365.93;;;7.00;100.00
45872;BME280;32333;55.844;-3.210;2023-11-19T04:14:36;97363.27;;;7.02;100.00
45872;BME280;32333;55.844;-3.210;2023-11-19T04:17:04;97370.20;;;7.20;100.00
45872;BME280;32333;55.844;-3.210;2023-11-19T04:19:31;97371.50;;;7.19;100.00
45872;BME280;32333;55.844;-3.210;2023-11-19T04:21:59;97368.73;;;7.62;100.00
45872;BME280;32333;55.844;-3.210;2023-11-19T04:24:26;97367.49;;;7.84;100.00
45872;BME280;32333;55.844;-3.210;2023-11-19T04:26:54;97363.58;;;7.29;100.00
45872;BME280;32333;55.844;-3.210;2023-11-19T04:29:22;97358.40;;;6.82;100.00
45872;BME280;32333;55.844;-3.210;2023-11-19T04:31:50;97366.62;;;6.86;100.00
45872;BME280;32333;55.844;-3.210;2023-11-19T04:34:17;97370.68;;;6.63;100.00
45872;BME280;32333;55.844;-3.210;2023-11-19T04:36:45;97365.66;;;7.25;100.00
45872;BME280;32333;55.844;-3.210;2023-11-19T04:39:12;97369.05;;;7.18;100.00
45872;BME280;32333;55.844;-3.210;2023-11-19T04:41:46;97369.14;;;6.90;100.00
45872;BME280;32333;55.844;-3.210;2023-11-19T04:44:35;97363.85;;;7.07;100.00
45872;BME280;32333;55.844;-3.210;2023-11-19T04:47:03;97363.68;;;7.38;100.00
45872;BME280;32333;55.844;-3.210;2023-11-19T04:49:30;97365.87;;;6.88;100.00
45872;BME280;32333;55.844;-3.210;2023-11-19T04:51:57;97365.25;;;6.90;100.00
45872;BME280;32333;55.844;-3.210;2023-11-19T04:54:25;97370.36;;;6.62;100.00
45872;BME280;32333;55.844;-3.210;2023-11-19T04:56:52;97374.61;;;6.81;100.00
45872;BME280;32333;55.844;-3.210;2023-11-19T04:59:19;97373.73;;;7.06;100.00
45872;BME280;32333;55.844;-3.210;2023-11-19T05:01:48;97374.18;;;7.42;100.00
45872;BME280;32333;55.844;-3.210;2023-11-19T05:04:15;97375.96;;;7.58;100.00
45872;BME280;32333;55.844;-3.210;2023-11-19T05:06:42;97384.00;;;6.99;100.00
45872;BME280;32333;55.844;-3.210;2023-11-19T05:09:09;97380.57;;;7.48;100.00
45872;BME280;32333;55.844;-3.210;2023-11-19T05:11:37;97382.82;;;6.92;100.00
45872;BME280;32333;55.844;-3.210;2023-11-19T05:14:35;97385.83;;;7.56;100.00
45872;BME280;32333;55.844;-3.210;2023-11-19T05:17:03;97380.89;;;7.76;100.00
45872;BME280;32333;55.844;-3.210;2023-11-19T05:19:31;97385.09;;;7.56;100.00
45872;BME280;32333;55.844;-3.210;2023-11-19T05:21:59;97384.83;;;7.64;100.00
45872;BME280;32333;55.844;-3.210;2023-11-19T05:24:27;97383.32;;;7.31;100.00
45872;BME280;32333;55.844;-3.210;2023-11-19T05:26:54;97386.25;;;7.22;100.00
45872;BME280;32333;55.844;-3.210;2023-11-19T05:29:22;97389.45;;;7.24;100.00
45872;BME280;32333;55.844;-3.210;2023-11-19T05:31:49;97393.09;;;7.42;100.00
45872;BME280;32333;55.844;-3.210;2023-11-19T05:34:17;97388.80;;;7.18;100.00
45872;BME280;32333;55.844;-3.210;2023-11-19T05:36:45;97384.66;;;8.05;100.00
45872;BME280;32333;55.844;-3.210;2023-11-19T05:39:12;97386.58;;;7.52;100.00
45872;BME280;32333;55.844;-3.210;2023-11-19T05:41:40;97385.50;;;7.32;100.00
45872;BME280;32333;55.844;-3.210;2023-11-19T05:44:35;97384.18;;;7.49;100.00
45872;BME280;32333;55.844;-3.210;2023-11-19T05:47:03;97388.90;;;7.98;100.00
45872;BME280;32333;55.844;-3.210;2023-11-19T05:49:31;97387.76;;;7.51;100.00
45872;BME280;32333;55.844;-3.210;2023-11-19T05:51:59;97392.77;;;7.61;100.00
45872;BME280;32333;55.844;-3.210;2023-11-19T05:54:27;97395.89;;;7.73;100.00
45872;BME280;32333;55.844;-3.210;2023-11-19T05:56:54;97397.74;;;7.97;100.00
45872;BME280;32333;55.844;-3.210;2023-11-19T05:59:22;97399.72;;;7.41;100.00
45872;BME280;32333;55.844;-3.210;2023-11-19T06:01:50;97401.77;;;7.77;100.00
45872;BME280;32333;55.844;-3.210;2023-11-19T06:04:17;97403.69;;;7.72;100.00
45872;BME280;32333;55.844;-3.210;2023-11-19T06:06:44;97400.84;;;7.61;100.00
45872;BME280;32333;55.844;-3.210;2023-11-19T06:09:12;97410.63;;;8.00;100.00
45872;BME280;32333;55.844;-3.210;2023-11-19T06:11:39;97411.90;;;8.12;100.00
45872;BME280;32333;55.844;-3.210;2023-11-19T06:14:36;97414.16;;;8.31;100.00
45872;BME280;32333;55.844;-3.210;2023-11-19T06:17:03;97409.68;;;7.96;100.00
45872;BME280;32333;55.844;-3.210;2023-11-19T06:19:31;97414.01;;;7.89;100.00
45872;BME280;32333;55.844;-3.210;2023-11-19T06:21:59;97411.43;;;8.59;100.00
45872;BME280;32333;55.844;-3.210;2023-11-19T06:24:27;97412.70;;;7.81;100.00
45872;BME280;32333;55.844;-3.210;2023-11-19T06:26:54;97407.98;;;7.86;100.00
45872;BME280;32333;55.844;-3.210;2023-11-19T06:29:22;97407.52;;;7.83;100.00
45872;BME280;32333;55.844;-3.210;2023-11-19T06:31:50;97396.77;;;7.84;100.00
45872;BME280;32333;55.844;-3.210;2023-11-19T06:34:17;97395.52;;;7.29;100.00
45872;BME280;32333;55.844;-3.210;2023-11-19T06:36:44;97395.19;;;6.89;100.00
45872;BME280;32333;55.844;-3.210;2023-11-19T06:39:12;97393.38;;;6.86;100.00
45872;BME280;32333;55.844;-3.210;2023-11-19T06:41:40;97389.72;;;6.80;100.00
45872;BME280;32333;55.844;-3.210;2023-11-19T06:44:35;97385.36;;;6.88;100.00
45872;BME280;32333;55.844;-3.210;2023-11-19T06:47:03;97388.83;;;6.72;100.00
45872;BME280;32333;55.844;-3.210;2023-11-19T06:49:30;97397.39;;;6.29;100.00
45872;BME280;32333;55.844;-3.210;2023-11-19T06:51:58;97390.88;;;6.63;100.00
45872;BME280;32333;55.844;-3.210;2023-11-19T06:54:25;97385.60;;;6.74;100.00
45872;BME280;32333;55.844;-3.210;2023-11-19T06:56:53;97391.38;;;6.52;100.00
45872;BME280;32333;55.844;-3.210;2023-11-19T06:59:20;97387.34;;;6.59;100.00
45872;BME280;32333;55.844;-3.210;2023-11-19T07:01:48;97383.87;;;6.70;100.00
45872;BME280;32333;55.844;-3.210;2023-11-19T07:04:15;97389.98;;;6.60;100.00
45872;BME280;32333;55.844;-3.210;2023-11-19T07:06:42;97398.84;;;6.32;100.00
45872;BME280;32333;55.844;-3.210;2023-11-19T07:09:11;97401.17;;;6.61;100.00
45872;BME280;32333;55.844;-3.210;2023-11-19T07:11:39;97400.19;;;7.17;100.00
45872;BME280;32333;55.844;-3.210;2023-11-19T07:14:35;97399.03;;;6.91;100.00
45872;BME280;32333;55.844;-3.210;2023-11-19T07:17:03;97412.08;;;6.50;100.00
45872;BME280;32333;55.844;-3.210;2023-11-19T07:19:30;97407.19;;;6.86;100.00
45872;BME280;32333;55.844;-3.210;2023-11-19T07:21:58;97406.60;;;6.58;100.00
45872;BME280;32333;55.844;-3.210;2023-11-19T07:24:26;97415.67;;;6.80;100.00
45872;BME280;32333;55.844;-3.210;2023-11-19T07:26:53;97424.66;;;6.31;100.00
45872;BME280;32333;55.844;-3.210;2023-11-19T07:29:20;97428.75;;;6.57;100.00
45872;BME280;32333;55.844;-3.210;2023-11-19T07:31:49;97425.43;;;6.79;100.00
45872;BME280;32333;55.844;-3.210;2023-11-19T07:34:16;97425.52;;;6.50;100.00
45872;BME280;32333;55.844;-3.210;2023-11-19T07:36:44;97428.92;;;6.70;100.00
45872;BME280;32333;55.844;-3.210;2023-11-19T07:39:12;97430.66;;;7.23;100.00
45872;BME280;32333;55.844;-3.210;2023-11-19T07:41:39;97425.61;;;6.24;100.00
45872;BME280;32333;55.844;-3.210;2023-11-19T07:44:35;97427.28;;;6.87;100.00
45872;BME280;32333;55.844;-3.210;2023-11-19T07:47:03;97428.44;;;6.53;100.00
45872;BME280;32333;55.844;-3.210;2023-11-19T07:49:31;97434.10;;;6.53;100.00
45872;BME280;32333;55.844;-3.210;2023-11-19T07:51:59;97434.20;;;7.07;100.00
45872;BME280;32333;55.844;-3.210;2023-11-19T07:54:26;97435.96;;;6.91;100.00
45872;BME280;32333;55.844;-3.210;2023-11-19T07:56:54;97425.18;;;6.78;100.00
45872;BME280;32333;55.844;-3.210;2023-11-19T07:59:22;97429.53;;;6.94;100.00
45872;BME280;32333;55.844;-3.210;2023-11-19T08:01:50;97433.11;;;7.37;100.00
45872;BME280;32333;55.844;-3.210;2023-11-19T08:04:17;97441.42;;;7.03;100.00
45872;BME280;32333;55.844;-3.210;2023-11-19T08:06:44;97443.84;;;7.06;100.00
45872;BME280;32333;55.844;-3.210;2023-11-19T08:09:12;97450.78;;;7.33;100.00
45872;BME280;32333;55.844;-3.210;2023-11-19T08:11:40;97449.13;;;7.93;100.00
45872;BME280;32333;55.844;-3.210;2023-11-19T08:14:36;97452.86;;;7.31;100.00
45872;BME280;32333;55.844;-3.210;2023-11-19T08:17:03;97454.38;;;7.56;100.00
45872;BME280;32333;55.844;-3.210;2023-11-19T08:19:31;97457.79;;;7.16;100.00
45872;BME280;32333;55.844;-3.210;2023-11-19T08:21:59;97460.63;;;7.62;100.00
45872;BME280;32333;55.844;-3.210;2023-11-19T08:24:26;97455.92;;;7.95;100.00
45872;BME280;32333;55.844;-3.210;2023-11-19T08:26:54;97459.07;;;8.29;100.00
45872;BME280;32333;55.844;-3.210;2023-11-19T08:29:21;97460.43;;;7.61;100.00
45872;BME280;32333;55.844;-3.210;2023-11-19T08:31:48;97460.49;;;8.18;100.00
45872;BME280;32333;55.844;-3.210;2023-11-19T08:34:15;97464.43;;;7.96;100.00
45872;BME280;32333;55.844;-3.210;2023-11-19T08:36:43;97468.62;;;7.71;100.00
45872;BME280;32333;55.844;-3.210;2023-11-19T08:39:11;97464.61;;;8.14;100.00
45872;BME280;32333;55.844;-3.210;2023-11-19T08:41:38;97465.41;;;8.18;100.00
45872;BME280;32333;55.844;-3.210;2023-11-19T08:44:35;97471.49;;;7.59;100.00
45872;BME280;32333;55.844;-3.210;2023-11-19T08:47:02;97472.41;;;7.83;100.00
45872;BME280;32333;55.844;-3.210;2023-11-19T08:49:30;97474.76;;;8.01;100.00
45872;BME280;32333;55.844;-3.210;2023-11-19T08:51:58;97476.99;;;7.92;100.00
45872;BME280;32333;55.844;-3.210;2023-11-19T08:54:25;97478.57;;;7.91;100.00
45872;BME280;32333;55.844;-3.210;2023-11-19T08:56:52;97480.24;;;8.09;100.00
45872;BME280;32333;55.844;-3.210;2023-11-19T08:59:20;97478.84;;;8.46;100.00
45872;BME280;32333;55.844;-3.210;2023-11-19T09:01:47;97483.58;;;8.54;100.00
45872;BME280;32333;55.844;-3.210;2023-11-19T09:04:14;97487.20;;;8.48;100.00
45872;BME280;32333;55.844;-3.210;2023-11-19T09:06:41;97486.19;;;8.13;100.00
45872;BME280;32333;55.844;-3.210;2023-11-19T09:09:09;97488.50;;;8.64;100.00
45872;BME280;32333;55.844;-3.210;2023-11-19T09:11:37;97492.90;;;7.69;100.00
45872;BME280;32333;55.844;-3.210;2023-11-19T09:14:35;97493.05;;;8.52;100.00
45872;BME280;32333;55.844;-3.210;2023-11-19T09:17:02;97494.10;;;8.73;100.00
45872;BME280;32333;55.844;-3.210;2023-11-19T09:19:32;97494.72;;;8.89;100.00
45872;BME280;32333;55.844;-3.210;2023-11-19T09:21:59;97493.11;;;9.09;100.00
45872;BME280;32333;55.844;-3.210;2023-11-19T09:24:26;97495.33;;;8.67;100.00
45872;BME280;32333;55.844;-3.210;2023-11-19T09:26:54;97491.85;;;8.88;100.00
45872;BME280;32333;55.844;-3.210;2023-11-19T09:29:21;97495.16;;;8.80;100.00
45872;BME280;32333;55.844;-3.210;2023-11-19T09:31:49;97486.93;;;8.50;100.00
45872;BME280;32333;55.844;-3.210;2023-11-19T09:34:16;97492.36;;;8.17;100.00
45872;BME280;32333;55.844;-3.210;2023-11-19T09:36:43;97493.69;;;8.25;100.00
45872;BME280;32333;55.844;-3.210;2023-11-19T09:39:10;97493.25;;;9.09;100.00
45872;BME280;32333;55.844;-3.210;2023-11-19T09:41:37;97490.17;;;8.49;100.00
45872;BME280;32333;55.844;-3.210;2023-11-19T09:44:34;97491.66;;;9.05;100.00
45872;BME280;32333;55.844;-3.210;2023-11-19T09:47:03;97491.79;;;9.10;100.00
45872;BME280;32333;55.844;-3.210;2023-11-19T09:49:31;97493.57;;;8.46;100.00
45872;BME280;32333;55.844;-3.210;2023-11-19T09:51:58;97495.58;;;8.77;100.00
45872;BME280;32333;55.844;-3.210;2023-11-19T09:54:25;97498.02;;;7.99;100.00
45872;BME280;32333;55.844;-3.210;2023-11-19T09:56:52;97499.38;;;8.23;100.00
45872;BME280;32333;55.844;-3.210;2023-11-19T09:59:20;97497.76;;;8.31;100.00
45872;BME280;32333;55.844;-3.210;2023-11-19T10:01:48;97502.45;;;8.00;100.00
45872;BME280;32333;55.844;-3.210;2023-11-19T10:04:16;97502.17;;;8.59;100.00
45872;BME280;32333;55.844;-3.210;2023-11-19T10:06:45;97502.37;;;8.45;100.00
45872;BME280;32333;55.844;-3.210;2023-11-19T10:09:12;97505.04;;;8.61;100.00
45872;BME280;32333;55.844;-3.210;2023-11-19T10:11:40;97509.20;;;8.39;100.00
45872;BME280;32333;55.844;-3.210;2023-11-19T10:14:35;97510.33;;;9.01;100.00
45872;BME280;32333;55.844;-3.210;2023-11-19T10:17:07;97516.10;;;9.23;100.00
45872;BME280;32333;55.844;-3.210;2023-11-19T10:19:34;97513.48;;;8.49;100.00
45872;BME280;32333;55.844;-3.210;2023-11-19T10:22:04;97515.61;;;9.33;100.00
45872;BME280;32333;55.844;-3.210;2023-11-19T10:24:32;97519.01;;;8.61;100.00
45872;BME280;32333;55.844;-3.210;2023-11-19T10:27:00;97516.62;;;9.25;100.00
45872;BME280;32333;55.844;-3.210;2023-11-19T10:29:27;97519.13;;;8.64;100.00
45872;BME280;32333;55.844;-3.210;2023-11-19T10:31:57;97517.59;;;8.63;100.00
45872;BME280;32333;55.844;-3.210;2023-11-19T10:34:25;97523.98;;;8.50;100.00
45872;BME280;32333;55.844;-3.210;2023-11-19T10:36:53;97522.14;;;9.53;100.00
45872;BME280;32333;55.844;-3.210;2023-11-19T10:39:21;97522.42;;;9.19;100.00
45872;BME280;32333;55.844;-3.210;2023-11-19T10:41:49;97528.40;;;9.24;100.00
45872;BME280;32333;55.844;-3.210;2023-11-19T10:44:34;97528.18;;;9.37;100.00
45872;BME280;32333;55.844;-3.210;2023-11-19T10:47:06;97535.20;;;9.21;100.00
45872;BME280;32333;55.844;-3.210;2023-11-19T10:49:35;97534.43;;;8.71;100.00
45872;BME280;32333;55.844;-3.210;2023-11-19T10:52:03;97540.88;;;9.06;100.00
45872;BME280;32333;55.844;-3.210;2023-11-19T10:54:32;97539.97;;;8.70;100.00
45872;BME280;32333;55.844;-3.210;2023-11-19T10:57:02;97535.72;;;8.90;100.00
45872;BME280;32333;55.844;-3.210;2023-11-19T10:59:31;97540.80;;;9.03;100.00
45872;BME280;32333;55.844;-3.210;2023-11-19T11:02:03;97545.69;;;9.11;100.00
45872;BME280;32333;55.844;-3.210;2023-11-19T11:04:39;97548.93;;;8.60;100.00
45872;BME280;32333;55.844;-3.210;2023-11-19T11:07:07;97553.10;;;8.90;100.00
45872;BME280;32333;55.844;-3.210;2023-11-19T11:09:36;97547.46;;;8.89;100.00
45872;BME280;32333;55.844;-3.210;2023-11-19T11:14:35;97551.87;;;9.39;100.00
45872;BME280;32333;55.844;-3.210;2023-11-19T11:17:05;97543.64;;;9.48;100.00
45872;BME280;32333;55.844;-3.210;2023-11-19T11:19:32;97549.31;;;9.30;100.00
45872;BME280;32333;55.844;-3.210;2023-11-19T11:22:01;97547.30;;;9.57;100.00
45872;BME280;32333;55.844;-3.210;2023-11-19T11:24:43;97549.96;;;8.95;100.00
45872;BME280;32333;55.844;-3.210;2023-11-19T11:27:35;97545.95;;;9.23;100.00
45872;BME280;32333;55.844;-3.210;2023-11-19T11:30:19;97553.58;;;9.41;100.00
45872;BME280;32333;55.844;-3.210;2023-11-19T11:32:54;97554.07;;;8.79;100.00
45872;BME280;32333;55.844;-3.210;2023-11-19T11:35:36;97550.91;;;9.16;100.00
45872;BME280;32333;55.844;-3.210;2023-11-19T11:38:09;97553.51;;;9.35;100.00
45872;BME280;32333;55.844;-3.210;2023-11-19T11:40:36;97552.24;;;9.61;100.00
45872;BME280;32333;55.844;-3.210;2023-11-19T11:44:58;97548.98;;;9.82;100.00
45872;BME280;32333;55.844;-3.210;2023-11-19T11:47:25;97542.55;;;9.52;100.00
45872;BME280;32333;55.844;-3.210;2023-11-19T11:49:54;97545.00;;;9.88;100.00
45872;BME280;32333;55.844;-3.210;2023-11-19T11:52:21;97545.98;;;9.33;100.00
45872;BME280;32333;55.844;-3.210;2023-11-19T11:54:48;97549.17;;;9.61;100.00
45872;BME280;32333;55.844;-3.210;2023-11-19T11:57:16;97547.66;;;9.93;100.00
45872;BME280;32333;55.844;-3.210;2023-11-19T11:59:47;97547.26;;;9.50;100.00
45872;BME280;32333;55.844;-3.210;2023-11-19T12:02:17;97546.03;;;10.10;100.00
45872;BME280;32333;55.844;-3.210;2023-11-19T12:04:48;97539.44;;;10.55;100.00
45872;BME280;32333;55.844;-3.210;2023-11-19T12:07:18;97546.64;;;10.08;100.00
45872;BME280;32333;55.844;-3.210;2023-11-19T12:09:48;97544.76;;;10.05;100.00
45872;BME280;32333;55.844;-3.210;2023-11-19T12:15:08;97547.05;;;10.80;100.00
45872;BME280;32333;55.844;-3.210;2023-11-19T12:17:47;97548.79;;;9.95;100.00
45872;BME280;32333;55.844;-3.210;2023-11-19T12:20:15;97552.53;;;9.52;100.00
45872;BME280;32333;55.844;-3.210;2023-11-19T12:22:44;97551.33;;;10.41;100.00
45872;BME280;32333;55.844;-3.210;2023-11-19T12:25:13;97550.77;;;10.64;100.00
45872;BME280;32333;55.844;-3.210;2023-11-19T12:27:41;97559.23;;;9.72;100.00
45872;BME280;32333;55.844;-3.210;2023-11-19T12:30:10;97558.30;;;10.65;100.00
45872;BME280;32333;55.844;-3.210;2023-11-19T12:32:39;97555.34;;;10.89;100.00
45872;BME280;32333;55.844;-3.210;2023-11-19T12:35:08;97560.76;;;10.92;100.00
45872;BME280;32333;55.844;-3.210;2023-11-19T12:37:39;97563.42;;;10.61;100.00
45872;BME280;32333;55.844;-3.210;2023-11-19T12:40:13;97559.69;;;10.61;100.00
45872;BME280;32333;55.844;-3.210;2023-11-19T12:44:35;97561.82;;;10.41;100.00
45872;BME280;32333;55.844;-3.210;2023-11-19T12:47:04;97560.01;;;11.22;100.00
45872;BME280;32333;55.844;-3.210;2023-11-19T12:49:33;97559.54;;;10.06;100.00
45872;BME280;32333;55.844;-3.210;2023-11-19T12:52:01;97560.57;;;10.37;100.00
45872;BME280;32333;55.844;-3.210;2023-11-19T12:54:33;97561.19;;;10.82;100.00
45872;BME280;32333;55.844;-3.210;2023-11-19T12:57:01;97561.24;;;10.74;100.00
45872;BME280;32333;55.844;-3.210;2023-11-19T12:59:29;97564.59;;;11.07;100.00
45872;BME280;32333;55.844;-3.210;2023-11-19T13:01:57;97566.50;;;10.46;100.00
45872;BME280;32333;55.844;-3.210;2023-11-19T13:04:28;97573.56;;;9.68;100.00
45872;BME280;32333;55.844;-3.210;2023-11-19T13:06:56;97574.37;;;9.39;100.00
45872;BME280;32333;55.844;-3.210;2023-11-19T13:09:25;97577.10;;;10.12;100.00
45872;BME280;32333;55.844;-3.210;2023-11-19T13:11:56;97579.69;;;9.47;100.00
45872;BME280;32333;55.844;-3.210;2023-11-19T13:14:36;97580.73;;;10.27;100.00
45872;BME280;32333;55.844;-3.210;2023-11-19T13:17:04;97581.38;;;10.26;100.00
45872;BME280;32333;55.844;-3.210;2023-11-19T13:19:31;97584.87;;;10.21;100.00
45872;BME280;32333;55.844;-3.210;2023-11-19T13:21:58;97588.45;;;10.31;100.00